createdAt,value
2019-02-18T00:00:33.066Z,99.90
2019-02-18T00:03:01.613Z,99.90
2019-02-18T00:05:30.082Z,99.90
2019-02-18T00:07:58.623Z,99.90
2019-02-18T00:10:27.120Z,99.90
2019-02-18T00:12:55.583Z,99.90
2019-02-18T00:15:24.052Z,99.90
2019-02-18T00:17:52.548Z,99.90
2019-02-18T00:20:20.995Z,99.90
2019-02-18T00:22:49.729Z,99.90
2019-02-18T00:25:18.210Z,99.90
2019-02-18T00:27:46.688Z,99.90
2019-02-18T00:30:15.150Z,99.90
2019-02-18T00:32:43.614Z,99.90
2019-02-18T00:35:12.078Z,99.90
2019-02-18T00:37:40.572Z,99.90
2019-02-18T00:40:10.187Z,99.90
2019-02-18T00:42:38.724Z,99.90
2019-02-18T00:45:13.840Z,99.90
2019-02-18T00:47:42.447Z,99.90
2019-02-18T00:50:11.785Z,99.90
2019-02-18T00:52:40.286Z,99.90
2019-02-18T00:55:09.596Z,99.90
2019-02-18T00:57:38.352Z,99.90
2019-02-18T01:00:13.171Z,99.90
2019-02-18T01:02:41.780Z,99.90
2019-02-18T01:05:13.251Z,99.90
2019-02-18T01:07:41.848Z,99.90
2019-02-18T01:10:12.349Z,99.90
2019-02-18T01:12:40.987Z,99.90
2019-02-18T01:15:14.216Z,99.90
2019-02-18T01:17:42.878Z,99.90
2019-02-18T01:20:13.357Z,99.90
2019-02-18T01:22:41.824Z,99.90
2019-02-18T01:25:12.729Z,99.90
2019-02-18T01:27:41.187Z,99.90
2019-02-18T01:30:12.687Z,99.90
2019-02-18T01:32:41.147Z,99.90
2019-02-18T01:35:09.773Z,99.90
2019-02-18T01:37:45.214Z,99.90
2019-02-18T01:40:11.228Z,99.90
2019-02-18T01:42:39.834Z,99.90
2019-02-18T01:45:11.003Z,99.90
2019-02-18T01:47:39.485Z,99.90
2019-02-18T01:50:10.881Z,99.90
2019-02-18T01:52:39.343Z,99.90
2019-02-18T01:55:08.965Z,99.90
2019-02-18T01:57:37.482Z,99.90
2019-02-18T02:00:16.856Z,99.90
2019-02-18T02:02:45.396Z,99.90
2019-02-18T02:05:15.791Z,99.90
2019-02-18T02:07:44.323Z,99.90
2019-02-18T02:10:15.000Z,99.90
2019-02-18T02:12:43.613Z,99.90
2019-02-18T02:15:21.460Z,99.90
2019-02-18T02:17:49.934Z,99.90
2019-02-18T02:20:18.491Z,99.90
2019-02-18T02:22:46.969Z,99.90
2019-02-18T02:25:15.430Z,99.90
2019-02-18T02:27:43.890Z,99.90
2019-02-18T02:30:12.695Z,99.90
2019-02-18T02:32:41.173Z,99.90
2019-02-18T02:35:09.974Z,99.90
2019-02-18T02:37:38.600Z,99.90
2019-02-18T02:40:09.424Z,99.90
2019-02-18T02:42:37.976Z,99.90
2019-02-18T02:45:08.033Z,99.90
2019-02-18T02:47:36.574Z,99.90
2019-02-18T02:50:06.477Z,99.90
2019-02-18T02:52:35.025Z,99.90
2019-02-18T02:55:04.334Z,99.90
2019-02-18T02:57:32.961Z,99.90
2019-02-18T03:00:01.450Z,99.90
2019-02-18T03:02:29.991Z,99.90
2019-02-18T03:04:58.440Z,99.90
2019-02-18T03:07:26.936Z,99.90
2019-02-18T03:09:55.487Z,99.90
2019-02-18T03:12:23.953Z,99.90
2019-02-18T03:14:52.485Z,99.90
2019-02-18T03:17:20.947Z,99.90
2019-02-18T03:19:49.414Z,99.90
2019-02-18T03:22:17.987Z,99.90
2019-02-18T03:25:06.094Z,99.90
2019-02-18T03:27:34.622Z,99.90
2019-02-18T03:30:30.357Z,99.90
2019-02-18T03:32:58.857Z,99.90
2019-02-18T03:35:27.508Z,99.90
2019-02-18T03:37:56.044Z,99.90
2019-02-18T03:40:24.513Z,99.90
2019-02-18T03:42:52.968Z,99.90
2019-02-18T03:45:21.842Z,99.90
2019-02-18T03:47:50.306Z,99.90
2019-02-18T03:50:18.769Z,99.90
2019-02-18T03:52:47.246Z,99.90
2019-02-18T03:55:15.763Z,99.90
2019-02-18T03:57:44.253Z,99.90
2019-02-18T04:00:13.401Z,99.90
2019-02-18T04:02:41.984Z,99.90
2019-02-18T04:05:10.813Z,99.90
2019-02-18T04:07:39.355Z,99.90
2019-02-18T04:10:12.272Z,99.90
2019-02-18T04:12:40.779Z,99.90
2019-02-18T04:15:14.046Z,99.90
2019-02-18T04:17:42.580Z,99.90
2019-02-18T04:20:11.065Z,99.90
2019-02-18T04:22:39.661Z,99.90
2019-02-18T04:25:08.331Z,99.90
2019-02-18T04:27:36.835Z,99.90
2019-02-18T04:30:08.491Z,99.90
2019-02-18T04:32:37.014Z,99.90
2019-02-18T04:35:07.820Z,99.90
2019-02-18T04:37:36.348Z,99.90
2019-02-18T04:40:07.029Z,99.90
2019-02-18T04:42:35.520Z,99.90
2019-02-18T04:45:05.718Z,99.90
2019-02-18T04:48:05.351Z,99.90
2019-02-18T04:50:33.843Z,99.90
2019-02-18T04:53:02.315Z,99.90
2019-02-18T04:55:30.983Z,99.90
2019-02-18T04:57:59.504Z,99.90
2019-02-18T05:00:28.052Z,99.90
2019-02-18T05:02:56.617Z,99.90
2019-02-18T05:05:25.209Z,99.90
2019-02-18T05:07:53.686Z,99.90
2019-02-18T05:10:22.207Z,99.90
2019-02-18T05:12:50.697Z,99.90
2019-02-18T05:15:19.159Z,99.90
2019-02-18T05:17:47.639Z,99.90
2019-02-18T05:20:16.101Z,99.90
2019-02-18T05:22:44.576Z,99.90
2019-02-18T05:25:13.138Z,99.90
2019-02-18T05:27:41.654Z,99.90
2019-02-18T05:30:11.765Z,99.90
2019-02-18T05:32:40.553Z,99.90
2019-02-18T05:35:09.119Z,99.90
2019-02-18T05:37:37.667Z,99.90
2019-02-18T05:40:08.041Z,99.90
2019-02-18T05:42:36.539Z,99.90
2019-02-18T05:45:07.675Z,99.90
2019-02-18T05:47:36.233Z,99.90
2019-02-18T05:50:06.996Z,99.90
2019-02-18T05:52:35.469Z,99.90
2019-02-18T05:55:07.361Z,99.90
2019-02-18T05:57:35.906Z,99.90
2019-02-18T06:00:10.229Z,99.90
2019-02-18T06:02:38.775Z,99.90
2019-02-18T06:05:07.938Z,99.90
2019-02-18T06:07:36.415Z,99.90
2019-02-18T06:10:08.763Z,99.90
2019-02-18T06:12:38.961Z,99.90
2019-02-18T06:15:09.697Z,99.90
2019-02-18T06:17:38.201Z,99.90
2019-02-18T06:20:08.941Z,99.90
2019-02-18T06:22:38.698Z,99.90
2019-02-18T06:25:07.534Z,99.90
2019-02-18T06:27:36.200Z,99.90
2019-02-18T06:30:06.183Z,99.90
2019-02-18T06:32:34.835Z,99.90
2019-02-18T06:35:03.482Z,99.90
2019-02-18T06:37:31.978Z,99.90
2019-02-18T06:40:00.532Z,99.90
2019-02-18T06:42:29.076Z,99.90
2019-02-18T06:45:02.190Z,99.90
2019-02-18T06:47:30.819Z,99.90
2019-02-18T06:49:59.359Z,99.90
2019-02-18T06:52:27.908Z,99.90
2019-02-18T06:54:56.637Z,99.90
2019-02-18T06:57:26.809Z,99.90
2019-02-18T06:59:55.282Z,99.90
2019-02-18T07:02:25.522Z,99.90
2019-02-18T07:04:58.452Z,99.90
2019-02-18T07:07:31.102Z,99.90
2019-02-18T07:10:01.195Z,99.90
2019-02-18T07:12:31.625Z,99.90
2019-02-18T07:15:02.886Z,99.90
2019-02-18T07:17:31.352Z,99.90
2019-02-18T07:19:59.839Z,99.90
2019-02-18T07:22:28.300Z,99.90
2019-02-18T07:24:56.769Z,99.90
2019-02-18T07:27:25.224Z,99.90
2019-02-18T07:29:53.801Z,99.90
2019-02-18T07:32:22.265Z,99.90
2019-02-18T07:34:50.753Z,99.90
2019-02-18T07:37:19.284Z,99.90
2019-02-18T07:39:48.063Z,99.90
2019-02-18T07:42:16.552Z,99.90
2019-02-18T07:44:45.021Z,99.90
2019-02-18T07:47:13.491Z,99.90
2019-02-18T07:49:42.019Z,99.90
2019-02-18T07:52:10.490Z,99.90
2019-02-18T07:54:38.970Z,99.90
2019-02-18T07:57:07.612Z,99.90
2019-02-18T07:59:36.069Z,99.90
2019-02-18T08:02:04.546Z,99.90
2019-02-18T08:04:33.083Z,82.20
2019-02-18T08:07:01.541Z,65.60
2019-02-18T08:09:30.032Z,56.60
2019-02-18T08:11:58.576Z,51.00
2019-02-18T08:14:27.062Z,47.00
2019-02-18T08:16:56.818Z,46.20
2019-02-18T08:19:28.196Z,43.60
2019-02-18T08:21:56.743Z,43.70
2019-02-18T08:24:25.243Z,45.40
2019-02-18T08:26:53.774Z,44.20
2019-02-18T08:29:22.245Z,41.80
2019-02-18T08:31:50.789Z,40.70
2019-02-18T08:34:19.254Z,40.20
2019-02-18T08:36:47.721Z,40.00
2019-02-18T08:39:19.407Z,41.30
2019-02-18T08:41:48.030Z,40.20
2019-02-18T08:44:16.476Z,39.60
2019-02-18T08:46:45.033Z,40.10
2019-02-18T08:49:13.509Z,39.20
2019-02-18T08:51:41.973Z,39.60
2019-02-18T08:54:10.441Z,37.00
2019-02-18T08:56:38.969Z,36.70
2019-02-18T08:59:07.433Z,36.80
2019-02-18T09:01:36.994Z,33.70
2019-02-18T09:04:05.554Z,34.70
2019-02-18T09:06:33.999Z,33.70
2019-02-18T09:09:02.738Z,33.60
2019-02-18T09:11:31.285Z,33.80
2019-02-18T09:13:59.776Z,34.10
2019-02-18T09:16:28.326Z,33.60
2019-02-18T09:18:56.872Z,33.70
2019-02-18T09:21:26.823Z,32.00
2019-02-18T09:23:59.636Z,33.40
2019-02-18T09:26:28.101Z,31.80
2019-02-18T09:28:56.600Z,31.80
2019-02-18T09:31:26.691Z,32.00
2019-02-18T09:33:55.161Z,31.20
2019-02-18T09:36:23.661Z,30.50
2019-02-18T09:38:52.283Z,31.10
2019-02-18T09:41:20.803Z,30.30
2019-02-18T09:43:49.451Z,30.50
2019-02-18T09:46:17.904Z,29.60
2019-02-18T09:48:46.561Z,28.50
2019-02-18T09:51:15.103Z,28.60
2019-02-18T09:53:43.579Z,29.70
2019-02-18T09:56:12.128Z,29.30
2019-02-18T09:58:40.724Z,29.40
2019-02-18T10:01:09.206Z,28.40
2019-02-18T10:03:37.771Z,28.30
2019-02-18T10:06:06.353Z,28.50
2019-02-18T10:08:34.846Z,28.20
2019-02-18T10:11:03.342Z,27.30
2019-02-18T10:13:31.899Z,26.40
2019-02-18T10:16:00.439Z,25.50
2019-02-18T10:18:28.900Z,25.10
2019-02-18T10:20:57.375Z,27.00
2019-02-18T10:23:25.927Z,26.90
2019-02-18T10:25:54.392Z,26.40
2019-02-18T10:28:22.874Z,25.80
2019-02-18T10:30:51.338Z,26.10
2019-02-18T10:33:19.836Z,26.00
2019-02-18T10:35:48.397Z,26.70
2019-02-18T10:38:17.042Z,26.90
2019-02-18T10:40:45.642Z,27.40
2019-02-18T10:43:14.154Z,28.20
2019-02-18T10:45:42.724Z,28.70
2019-02-18T10:48:11.328Z,28.10
2019-02-18T10:50:40.269Z,28.90
2019-02-18T10:53:08.845Z,29.30
2019-02-18T10:55:37.398Z,29.10
2019-02-18T10:58:05.931Z,29.20
2019-02-18T11:00:34.541Z,28.20
2019-02-18T11:03:03.010Z,27.60
2019-02-18T11:05:31.597Z,27.10
2019-02-18T11:08:00.142Z,27.40
2019-02-18T11:10:28.749Z,28.10
2019-02-18T11:12:57.300Z,28.20
2019-02-18T11:15:26.291Z,29.10
2019-02-18T11:17:54.835Z,28.80
2019-02-18T11:20:23.401Z,29.60
2019-02-18T11:22:51.950Z,31.20
2019-02-18T11:25:20.504Z,30.50
2019-02-18T11:27:49.108Z,30.60
2019-02-18T11:30:18.918Z,31.60
2019-02-18T11:32:47.452Z,31.20
2019-02-18T11:35:15.925Z,33.50
2019-02-18T11:37:44.485Z,34.20
2019-02-18T11:40:17.572Z,34.20
2019-02-18T11:42:47.110Z,35.40
2019-02-18T11:45:16.577Z,35.40
2019-02-18T11:47:45.193Z,35.60
2019-02-18T11:50:14.976Z,36.00
2019-02-18T11:52:43.508Z,36.80
2019-02-18T11:55:13.992Z,37.10
2019-02-18T11:57:42.976Z,37.20
2019-02-18T12:00:13.452Z,38.30
2019-02-18T12:02:42.018Z,38.40
2019-02-18T12:05:11.423Z,38.70
2019-02-18T12:07:40.058Z,38.60
2019-02-18T12:10:10.635Z,38.70
2019-02-18T12:12:39.485Z,38.50
2019-02-18T12:15:15.765Z,38.80
2019-02-18T12:17:44.393Z,38.00
2019-02-18T12:20:16.592Z,38.30
2019-02-18T12:22:45.153Z,37.60
2019-02-18T12:25:14.028Z,37.20
2019-02-18T12:27:42.980Z,36.40
2019-02-18T12:30:15.925Z,36.60
2019-02-18T12:32:44.556Z,36.50
2019-02-18T12:35:13.436Z,37.80
2019-02-18T12:37:42.157Z,37.90
2019-02-18T12:40:14.140Z,37.10
2019-02-18T12:42:42.863Z,36.00
2019-02-18T12:45:14.385Z,36.00
2019-02-18T12:47:42.985Z,36.40
2019-02-18T12:50:12.512Z,37.00
2019-02-18T12:52:41.040Z,37.00
2019-02-18T12:55:10.740Z,37.80
2019-02-18T12:57:39.611Z,37.90
2019-02-18T13:00:11.024Z,36.70
2019-02-18T13:02:44.175Z,37.30
2019-02-18T13:05:10.759Z,36.20
2019-02-18T13:07:39.320Z,36.40
2019-02-18T13:10:09.679Z,36.00
2019-02-18T13:12:38.204Z,35.80
2019-02-18T13:15:09.981Z,36.10
2019-02-18T13:17:42.842Z,36.30
2019-02-18T13:20:11.664Z,37.00
2019-02-18T13:22:40.258Z,36.40
2019-02-18T13:25:09.938Z,36.00
2019-02-18T13:27:38.507Z,36.80
2019-02-18T13:30:13.015Z,36.30
2019-02-18T13:32:41.632Z,36.90
2019-02-18T13:35:10.264Z,37.70
2019-02-18T13:37:38.801Z,36.40
2019-02-18T13:40:08.189Z,36.60
2019-02-18T13:42:36.749Z,37.50
2019-02-18T13:45:07.646Z,36.90
2019-02-18T13:47:36.183Z,37.40
2019-02-18T13:50:08.084Z,38.30
2019-02-18T13:52:36.680Z,37.80
2019-02-18T13:55:07.404Z,38.10
2019-02-18T13:57:36.102Z,38.40
2019-02-18T14:00:18.058Z,37.90
2019-02-18T14:02:46.996Z,38.10
2019-02-18T14:05:15.711Z,37.80
2019-02-18T14:07:44.416Z,38.10
2019-02-18T14:10:13.367Z,38.00
2019-02-18T14:12:42.011Z,37.90
2019-02-18T14:15:12.684Z,38.00
2019-02-18T14:17:41.280Z,38.40
2019-02-18T14:20:12.055Z,39.00
2019-02-18T14:22:40.778Z,38.60
2019-02-18T14:25:11.022Z,38.10
2019-02-18T14:27:39.643Z,38.80
2019-02-18T14:30:11.333Z,38.80
2019-02-18T14:32:39.891Z,38.50
2019-02-18T14:35:09.268Z,38.60
2019-02-18T14:37:37.871Z,39.00
2019-02-18T14:40:08.782Z,38.90
2019-02-18T14:42:37.395Z,39.30
2019-02-18T14:45:06.466Z,39.60
2019-02-18T14:47:35.016Z,38.40
2019-02-18T14:50:06.192Z,39.70
2019-02-18T14:52:34.765Z,40.40
2019-02-18T14:55:04.069Z,40.30
2019-02-18T14:57:33.650Z,39.90
2019-02-18T15:00:02.936Z,41.00
2019-02-18T15:02:34.337Z,40.70
2019-02-18T15:05:02.874Z,41.00
2019-02-18T15:07:31.617Z,40.90
2019-02-18T15:10:00.457Z,41.10
2019-02-18T15:12:33.120Z,40.90
2019-02-18T15:14:59.522Z,41.30
2019-02-18T15:17:28.097Z,40.80
2019-02-18T15:19:56.646Z,40.60
2019-02-18T15:22:28.164Z,41.00
2019-02-18T15:24:57.202Z,40.70
2019-02-18T15:27:25.745Z,40.40
2019-02-18T15:29:54.293Z,41.30
2019-02-18T15:32:22.830Z,41.30
2019-02-18T15:39:05.382Z,41.70
2019-02-18T15:41:33.999Z,42.60
2019-02-18T15:44:02.570Z,42.80
2019-02-18T15:46:31.103Z,43.10
2019-02-18T15:49:00.049Z,43.90
2019-02-18T15:51:28.675Z,44.10
2019-02-18T15:53:57.227Z,45.10
2019-02-18T15:56:25.714Z,45.00
2019-02-18T15:58:54.264Z,45.70
2019-02-18T16:01:22.916Z,45.60
2019-02-18T16:06:20.067Z,46.60
2019-02-18T16:08:48.601Z,55.10
2019-02-18T16:11:17.141Z,59.50
2019-02-18T16:13:45.641Z,47.60
2019-02-18T16:16:14.208Z,50.40
2019-02-18T16:18:42.838Z,52.90
2019-02-18T16:21:11.885Z,55.80
2019-02-18T16:23:40.438Z,60.40
2019-02-18T16:26:09.086Z,66.80
2019-02-18T16:28:37.593Z,75.30
2019-02-18T16:31:06.204Z,87.90
2019-02-18T16:33:34.758Z,97.60
2019-02-18T16:36:03.313Z,99.90
2019-02-18T16:38:31.858Z,99.90
2019-02-18T16:41:01.428Z,99.90
2019-02-18T16:43:30.410Z,99.90
2019-02-18T16:45:58.947Z,99.90
2019-02-18T16:48:27.883Z,99.90
2019-02-18T16:50:56.777Z,99.90
2019-02-18T16:53:25.320Z,99.90
2019-02-18T16:55:53.851Z,99.90
2019-02-18T16:58:22.505Z,99.90
2019-02-18T17:00:57.265Z,99.90
2019-02-18T17:03:21.676Z,99.90
2019-02-18T17:05:50.292Z,99.90
2019-02-18T17:08:18.822Z,99.90
2019-02-18T17:10:47.712Z,99.90
2019-02-18T17:13:16.274Z,99.90
2019-02-18T17:15:44.859Z,99.90
2019-02-18T17:18:14.349Z,99.90
2019-02-18T17:20:42.911Z,99.90
2019-02-18T17:23:11.752Z,99.90
2019-02-18T17:25:40.541Z,99.90
2019-02-18T17:28:09.155Z,99.90
2019-02-18T17:30:37.729Z,99.90
2019-02-18T17:33:06.305Z,99.90
2019-02-18T17:35:37.804Z,99.90
2019-02-18T17:38:06.747Z,99.90
2019-02-18T17:40:35.440Z,99.90
2019-02-18T17:43:04.032Z,99.90
2019-02-18T17:45:32.592Z,99.90
2019-02-18T17:48:01.299Z,99.90
2019-02-18T17:50:29.868Z,99.90
2019-02-18T17:52:58.750Z,99.90
2019-02-18T17:55:27.284Z,99.90
2019-02-18T17:57:55.838Z,99.90
2019-02-18T18:00:38.716Z,99.90
2019-02-18T18:03:07.237Z,99.90
2019-02-18T18:05:35.819Z,99.90
2019-02-18T18:08:04.570Z,99.90
2019-02-18T18:10:33.165Z,99.90
2019-02-18T18:13:01.730Z,99.90
2019-02-18T18:15:30.243Z,99.90
2019-02-18T18:17:58.789Z,99.90
2019-02-18T18:20:27.334Z,99.90
2019-02-18T18:22:56.164Z,99.90
2019-02-18T18:25:25.079Z,99.90
2019-02-18T18:27:53.617Z,99.90
2019-02-18T18:30:22.155Z,99.90
2019-02-18T18:32:50.638Z,99.90
2019-02-18T18:35:19.234Z,99.90
2019-02-18T18:37:49.709Z,99.90
2019-02-18T18:40:20.321Z,99.90
2019-02-18T18:42:48.878Z,99.90
2019-02-18T18:45:18.278Z,99.90
2019-02-18T18:47:46.886Z,99.90
2019-02-18T18:50:22.522Z,99.90
2019-02-18T18:52:51.124Z,99.90
2019-02-18T18:55:20.129Z,99.90
2019-02-18T18:57:48.672Z,99.90
2019-02-18T19:00:23.640Z,99.90
2019-02-18T19:02:52.404Z,99.90
2019-02-18T19:05:21.486Z,99.90
2019-02-18T19:07:52.907Z,99.90
2019-02-18T19:10:21.634Z,99.90
2019-02-18T19:12:50.335Z,99.90
2019-02-18T19:15:19.261Z,99.90
2019-02-18T19:17:47.846Z,99.90
2019-02-18T19:20:17.611Z,99.90
2019-02-18T19:22:46.362Z,99.90
2019-02-18T19:25:15.936Z,99.90
2019-02-18T19:27:46.147Z,99.90
2019-02-18T19:30:29.268Z,99.90
2019-02-18T19:32:58.761Z,99.90
2019-02-18T19:35:27.335Z,99.90
2019-02-18T19:37:57.063Z,99.90
2019-02-18T19:40:31.516Z,99.90
2019-02-18T19:42:59.980Z,99.90
2019-02-18T19:45:28.837Z,99.90
2019-02-18T19:47:59.933Z,99.90
2019-02-18T19:50:28.504Z,99.90
2019-02-18T19:52:57.018Z,99.90
2019-02-18T19:55:25.595Z,99.90
2019-02-18T19:57:54.109Z,99.90
2019-02-18T20:00:23.703Z,99.90
2019-02-18T20:02:52.171Z,99.90
2019-02-18T20:05:20.690Z,99.90
2019-02-18T20:07:49.143Z,99.90
2019-02-18T20:10:17.838Z,99.90
2019-02-18T20:12:46.407Z,99.90
2019-02-18T20:15:15.928Z,99.90
2019-02-18T20:17:44.376Z,99.90
2019-02-18T20:20:19.782Z,99.90
2019-02-18T20:22:48.190Z,99.90
2019-02-18T20:25:16.601Z,99.90
2019-02-18T20:27:46.014Z,99.90
2019-02-18T20:30:15.663Z,99.90
2019-02-18T20:32:44.147Z,99.90
2019-02-18T20:35:12.811Z,99.90
2019-02-18T20:37:41.226Z,99.90
2019-02-18T20:40:11.379Z,99.90
2019-02-18T20:42:40.191Z,99.90
2019-02-18T20:45:14.769Z,99.90
2019-02-18T20:47:43.256Z,99.90
2019-02-18T20:50:13.013Z,99.90
2019-02-18T20:52:41.426Z,99.90
2019-02-18T20:55:11.890Z,99.90
2019-02-18T20:57:40.313Z,99.90
2019-02-18T21:00:13.450Z,99.90
2019-02-18T21:02:41.968Z,99.90
2019-02-18T21:05:10.451Z,99.90
2019-02-18T21:07:38.862Z,99.90
2019-02-18T21:10:20.690Z,99.90
2019-02-18T21:12:49.317Z,99.90
2019-02-18T21:15:17.975Z,99.90
2019-02-18T21:17:46.459Z,99.90
2019-02-18T21:20:15.033Z,99.90
2019-02-18T21:22:43.539Z,99.90
2019-02-18T21:25:12.546Z,99.90
2019-02-18T21:27:40.961Z,99.90
2019-02-18T21:30:15.168Z,99.90
2019-02-18T21:32:43.572Z,99.90
2019-02-18T21:35:12.077Z,99.90
2019-02-18T21:37:40.930Z,99.90
2019-02-18T21:40:11.394Z,99.90
2019-02-18T21:42:39.930Z,99.90
2019-02-18T21:45:10.882Z,99.90
2019-02-18T21:47:39.310Z,99.90
2019-02-18T21:50:09.857Z,99.90
2019-02-18T21:52:38.551Z,99.90
2019-02-18T21:55:09.258Z,99.90
2019-02-18T21:57:37.684Z,99.90
2019-02-18T22:00:18.567Z,99.90
2019-02-18T22:02:47.327Z,99.90
2019-02-18T22:05:16.394Z,99.90
2019-02-18T22:07:44.837Z,99.90
2019-02-18T22:10:13.749Z,99.90
2019-02-18T22:12:42.157Z,99.90
2019-02-18T22:15:13.519Z,99.90
2019-02-18T22:17:41.935Z,99.90
2019-02-18T22:20:11.598Z,99.90
2019-02-18T22:22:40.077Z,99.90
2019-02-18T22:25:12.530Z,99.90
2019-02-18T22:27:40.985Z,99.90
2019-02-18T22:30:14.297Z,99.90
2019-02-18T22:32:42.717Z,99.90
2019-02-18T22:35:11.410Z,99.90
2019-02-18T22:37:40.005Z,99.90
2019-02-18T22:40:12.932Z,99.90
2019-02-18T22:42:41.492Z,99.90
2019-02-18T22:45:11.831Z,99.90
2019-02-18T22:47:40.342Z,99.90
2019-02-18T22:50:10.700Z,99.90
2019-02-18T22:52:39.166Z,99.90
2019-02-18T22:55:08.612Z,99.90
2019-02-18T22:57:38.616Z,99.90
2019-02-18T23:00:30.190Z,99.90
2019-02-18T23:02:59.036Z,99.90
2019-02-18T23:05:27.625Z,99.90
2019-02-18T23:07:56.087Z,99.90
2019-02-18T23:10:24.503Z,99.90
2019-02-18T23:12:52.934Z,99.90
2019-02-18T23:15:21.356Z,99.90
2019-02-18T23:17:49.973Z,99.90
2019-02-18T23:20:18.465Z,99.90
2019-02-18T23:22:47.046Z,99.90
2019-02-18T23:25:15.568Z,99.90
2019-02-18T23:27:44.043Z,99.90
2019-02-18T23:30:12.521Z,99.90
2019-02-18T23:32:41.196Z,99.90
2019-02-18T23:35:10.198Z,99.90
2019-02-18T23:37:38.723Z,99.90
2019-02-18T23:40:07.521Z,99.90
2019-02-18T23:42:36.325Z,99.90
2019-02-18T23:45:05.263Z,99.90
2019-02-18T23:47:33.681Z,99.90
2019-02-18T23:50:02.100Z,99.90
2019-02-18T23:52:30.510Z,99.90
2019-02-18T23:54:58.977Z,99.90
2019-02-18T23:57:27.388Z,99.90
2019-02-18T23:59:55.811Z,99.90
